Lorentz, West Virginia
Current Conditions -  °F | °C
As of 7:55 AM on Friday 28 Nov 2014 (Local Time) from KW22 Reporting Station
Light Snow Light Snow  
Wind Chill: 17°   Ceiling: 1500
Heat Index: 23°   Visibility: 8mi
Dew Point: 19°   Wind: 5mph
Humidity: 86%   Direction: 290°WNW
Pressure: 30.31"   Gusts: NA
Location:  39.01°N, 80.3°W
Report Text: KW22 281255Z AUTO 29004KT 8SM -SN FEW001 BKN015 OVC041 M05/M07 A3031 RMK AO2
Loading
Personal Weather Stations






























Interactive Weather Map New forecast layout! Learn more

10-Day Weather Forecast

Advertisements
Track Severe Weather on mobile